Time;durP1;ratioP1;P1;durP2;ratioP2;P2;SDS_P1;SDS_P2;PMS_P1;PMS_P2;Temp;Humidity;BMP_temperature;BMP_pressure;BME280_temperature;BME280_humidity;BME280_pressure;Samples;Min_cycle;Max_cycle;Signal;HPM_P1;HPM_P2
2023/01/20 00:01:05;;;;;;;39.95;27.90;;;;;;;3.00;73.65;100980.31;5052364;28;20024;-64
2023/01/20 00:03:31;;;;;;;39.63;27.15;;;;;;;3.01;72.70;100974.63;5052672;28;20373;-64
2023/01/20 00:05:56;;;;;;;42.53;28.63;;;;;;;3.01;73.70;100987.50;5051811;28;20028;-63
2023/01/20 00:08:22;;;;;;;43.22;29.05;;;;;;;3.01;72.78;100988.34;5048464;28;20025;-64
2023/01/20 00:10:47;;;;;;;46.33;31.10;;;;;;;3.04;73.00;100984.38;5032773;28;20053;-63
2023/01/20 00:13:13;;;;;;;45.97;31.20;;;;;;;3.02;73.01;100990.03;5052179;28;20434;-64
2023/01/20 00:15:38;;;;;;;47.50;31.95;;;;;;;3.01;72.63;100996.56;5049803;28;20418;-64
2023/01/20 00:18:03;;;;;;;46.42;30.90;;;;;;;3.01;73.31;100990.25;5051368;28;20029;-64
2023/01/20 00:20:29;;;;;;;50.20;32.00;;;;;;;3.00;72.90;100996.78;5047862;28;20472;-65
2023/01/20 00:22:54;;;;;;;46.53;30.17;;;;;;;2.98;72.83;100996.13;5046429;28;20051;-64
2023/01/20 00:25:19;;;;;;;46.17;29.65;;;;;;;2.97;72.57;100995.28;5051530;28;20476;-64
2023/01/20 00:27:45;;;;;;;43.50;30.27;;;;;;;2.95;72.89;100995.50;5051794;28;20032;-64
2023/01/20 00:30:11;;;;;;;44.65;29.83;;;;;;;2.93;72.62;101000.31;5039632;28;20163;-64
2023/01/20 00:32:38;;;;;;;42.95;28.90;;;;;;;2.97;73.02;101002.66;5046662;28;20047;-64
2023/01/20 00:35:05;;;;;;;42.38;27.67;;;;;;;2.98;73.47;101005.19;5050107;28;20044;-64
2023/01/20 00:37:30;;;;;;;42.53;27.65;;;;;;;3.00;73.03;101008.59;5050108;28;20080;-64
2023/01/20 00:39:55;;;;;;;42.92;27.13;;;;;;;2.99;73.29;101009.66;5051278;28;20064;-64
2023/01/20 00:42:20;;;;;;;44.15;28.17;;;;;;;2.97;72.78;101008.97;5050662;28;20502;-64
2023/01/20 00:44:46;;;;;;;45.30;28.48;;;;;;;2.96;73.04;101007.31;5050318;28;20029;-64
2023/01/20 00:47:11;;;;;;;45.38;28.83;;;;;;;2.96;73.23;101023.75;5038177;28;20037;-64
2023/01/20 00:49:36;;;;;;;45.60;28.75;;;;;;;2.95;72.81;101022.91;5042256;28;20407;-64
2023/01/20 00:52:01;;;;;;;47.65;29.65;;;;;;;2.92;72.80;101020.56;5050875;28;20484;-65
2023/01/20 00:54:27;;;;;;;45.40;28.63;;;;;;;2.89;73.15;101012.72;5051307;28;20107;-65
2023/01/20 00:56:52;;;;;;;44.97;28.55;;;;;;;2.91;72.75;101012.53;5042581;28;20040;-65
2023/01/20 00:59:17;;;;;;;46.08;30.00;;;;;;;2.94;72.84;101021.19;5049400;28;20510;-65
2023/01/20 01:01:44;;;;;;;47.13;30.35;;;;;;;2.95;73.37;101022.91;5037372;28;20029;-65
2023/01/20 01:04:10;;;;;;;46.28;30.13;;;;;;;2.92;72.96;101025.19;5044333;28;20044;-65
2023/01/20 01:06:35;;;;;;;45.30;29.77;;;;;;;2.92;73.05;101022.44;5048566;28;20614;-65
2023/01/20 01:09:00;;;;;;;46.28;29.42;;;;;;;2.93;73.33;101021.41;5050277;28;20115;-64
2023/01/20 01:11:26;;;;;;;47.65;29.50;;;;;;;2.92;72.88;101027.94;5051107;28;20099;-65
2023/01/20 01:13:54;;;;;;;43.92;28.73;;;;;;;2.90;73.43;101041.81;5051598;28;20041;-65
2023/01/20 01:16:19;;;;;;;43.75;27.63;;;;;;;2.92;73.25;101027.94;5049190;28;20469;-65
2023/01/20 01:18:44;;;;;;;43.28;28.08;;;;;;;2.92;72.98;101044.38;5043803;28;20047;-65
2023/01/20 01:21:15;;;;;;;44.67;29.40;;;;;;;2.91;73.53;101049.03;5048553;28;20033;-65
2023/01/20 01:23:41;;;;;;;43.53;25.63;;;;;;;2.92;73.33;101050.72;5049918;28;20123;-65
2023/01/20 01:26:07;;;;;;;40.45;25.65;;;;;;;2.89;72.92;101059.31;5051482;28;20115;-65
2023/01/20 01:28:32;;;;;;;42.83;26.25;;;;;;;2.87;73.31;101057.81;5049740;28;20025;-66
2023/01/20 01:31:02;;;;;;;43.00;26.33;;;;;;;2.88;73.38;101057.63;5049586;28;20074;-65
2023/01/20 01:33:28;;;;;;;46.83;27.52;;;;;;;2.88;73.30;101059.53;5049583;28;20059;-65
2023/01/20 01:35:55;;;;;;;44.13;27.58;;;;;;;2.85;72.86;101055.28;5043395;28;20037;-65
2023/01/20 01:38:20;;;;;;;43.92;25.83;;;;;;;2.86;73.22;101053.38;5044154;28;20037;-65
2023/01/20 01:40:50;;;;;;;41.92;26.35;;;;;;;2.86;73.40;101056.13;5050369;28;20029;-65
2023/01/20 01:43:29;;;;;;;42.38;25.83;;;;;;;2.90;73.44;101060.16;5051334;28;20029;-65
2023/01/20 01:45:55;;;;;;;44.17;25.50;;;;;;;2.89;73.37;101061.22;5049750;28;20052;-65
2023/01/20 01:48:24;;;;;;;41.08;24.58;;;;;;;2.92;73.26;101061.69;5049814;28;20471;-65
2023/01/20 01:50:58;;;;;;;45.13;24.67;;;;;;;2.90;73.15;101060.16;5048831;28;20120;-62
2023/01/20 01:53:26;;;;;;;41.55;25.80;;;;;;;2.90;72.96;101071.13;5030823;28;20037;-65
2023/01/20 01:56:01;;;;;;;45.10;25.88;;;;;;;2.89;73.09;101063.97;5048284;28;20082;-65
2023/01/20 01:58:31;;;;;;;43.50;25.42;;;;;;;2.89;73.66;101063.97;5050299;28;20023;-63
2023/01/20 02:00:57;;;;;;;44.80;26.42;;;;;;;2.92;72.82;101060.84;5050158;28;20036;-63
2023/01/20 02:03:23;;;;;;;45.95;26.33;;;;;;;2.90;73.28;101065.66;5049232;28;20051;-64
2023/01/20 02:05:51;;;;;;;47.92;28.00;;;;;;;2.93;72.89;101065.25;5048563;28;20036;-64
2023/01/20 02:08:18;;;;;;;49.08;27.45;;;;;;;2.95;72.96;101061.28;5044249;28;20021;-64
2023/01/20 02:10:43;;;;;;;47.65;25.75;;;;;;;2.97;72.79;101062.97;5032167;28;20120;-63
2023/01/20 02:13:08;;;;;;;47.50;27.00;;;;;;;2.95;72.84;101065.94;5050078;28;20136;-64
2023/01/20 02:16:03;;;;;;;46.80;27.15;;;;;;;2.99;72.72;101069.97;5049488;28;20048;-63
2023/01/20 02:18:47;;;;;;;47.10;26.02;;;;;;;2.99;72.68;101075.47;5008327;28;20049;-63
2023/01/20 02:21:33;;;;;;;46.47;26.52;;;;;;;2.91;73.12;101070.97;5047687;28;21007;-64
2023/01/20 02:24:09;;;;;;;43.15;25.17;;;;;;;2.92;73.48;101064.41;5049140;28;20043;-63
2023/01/20 02:26:34;;;;;;;45.05;25.48;;;;;;;2.91;72.95;101064.63;5047074;28;20033;-64
2023/01/20 02:29:35;;;;;;;48.70;26.45;;;;;;;2.92;72.95;101069.06;5043423;28;20150;-64
2023/01/20 02:32:00;;;;;;;44.92;25.27;;;;;;;2.91;73.13;101070.13;5046721;28;20053;-64
2023/01/20 02:34:35;;;;;;;42.88;25.42;;;;;;;2.92;72.97;101072.66;5048831;28;20025;-63
2023/01/20 02:37:14;;;;;;;43.03;24.83;;;;;;;2.92;72.82;101089.09;5050633;28;20099;-63
2023/01/20 02:39:55;;;;;;;40.67;23.38;;;;;;;2.89;73.20;101085.91;5041559;28;20029;-63
2023/01/20 02:42:32;;;;;;;41.88;23.35;;;;;;;2.91;72.78;101094.78;5048330;28;20041;-63
2023/01/20 02:45:06;;;;;;;45.58;25.02;;;;;;;2.88;73.35;101082.31;5042732;28;20020;-64
2023/01/20 02:47:42;;;;;;;41.35;23.60;;;;;;;2.86;73.33;101080.81;5046191;28;20127;-64
2023/01/20 02:50:12;;;;;;;42.03;23.85;;;;;;;2.88;73.40;101076.00;5050133;28;20090;-64
2023/01/20 02:52:43;;;;;;;40.45;24.05;;;;;;;2.87;73.22;101086.09;5046003;28;20032;-64
2023/01/20 02:55:13;;;;;;;41.55;24.25;;;;;;;2.87;72.76;101094.34;5047285;28;20025;-64
2023/01/20 02:58:00;;;;;;;44.33;24.20;;;;;;;2.89;72.63;101088.66;5048839;28;20132;-64
2023/01/20 03:00:33;;;;;;;43.80;24.75;;;;;;;2.86;72.81;101080.81;5040153;28;20070;-64
2023/01/20 03:03:05;;;;;;;43.30;24.25;;;;;;;2.79;72.53;101085.38;5045876;28;20384;-64
2023/01/20 03:05:33;;;;;;;47.72;24.98;;;;;;;2.75;72.74;101076.72;5049359;28;20033;-63
2023/01/20 03:08:04;;;;;;;42.55;24.73;;;;;;;2.78;73.20;101083.69;5050054;28;20029;-63
2023/01/20 03:10:33;;;;;;;42.78;24.85;;;;;;;2.77;73.39;101076.50;5048524;28;20033;-63
2023/01/20 03:13:31;;;;;;;41.55;24.52;;;;;;;2.81;73.68;101084.13;5048761;28;20025;-64
2023/01/20 03:16:02;;;;;;;46.25;24.05;;;;;;;2.80;73.41;101084.34;5038569;28;20366;-64
2023/01/20 03:18:29;;;;;;;43.47;24.45;;;;;;;2.82;73.33;101084.97;5032035;28;20033;-64
2023/01/20 03:20:57;;;;;;;40.80;23.25;;;;;;;2.83;73.26;101092.16;5038681;28;20029;-64
2023/01/20 03:23:25;;;;;;;46.47;24.17;;;;;;;2.83;73.52;101097.63;5047866;28;20033;-64
2023/01/20 03:25:50;;;;;;;49.28;25.17;;;;;;;2.78;73.22;101092.75;5048702;28;20488;-65
2023/01/20 03:28:15;;;;;;;46.45;24.85;;;;;;;2.79;73.53;101093.59;5050194;28;20021;-64
2023/01/20 03:30:41;;;;;;;45.58;24.38;;;;;;;2.77;73.42;101101.19;5043823;28;20033;-64
2023/01/20 03:33:07;;;;;;;45.63;24.58;;;;;;;2.78;73.25;101109.19;5047155;28;20468;-64
2023/01/20 03:35:34;;;;;;;38.45;22.35;;;;;;;2.83;73.45;101105.88;5041787;28;20037;-63
2023/01/20 03:38:00;;;;;;;45.47;24.40;;;;;;;2.77;73.66;101109.41;5047219;28;20591;-63
2023/01/20 03:40:30;;;;;;;42.78;23.65;;;;;;;2.79;73.40;101104.56;5049891;28;20060;-64
2023/01/20 03:43:05;;;;;;;38.08;22.52;;;;;;;2.81;72.97;101116.19;5052945;28;20029;-63
2023/01/20 03:45:54;;;;;;;45.03;24.13;;;;;;;2.84;73.07;101107.59;5049193;28;20423;-63
2023/01/20 03:48:45;;;;;;;42.95;23.58;;;;;;;2.85;73.18;101098.31;5049656;28;20037;-63
2023/01/20 03:51:25;;;;;;;44.60;24.35;;;;;;;2.81;73.25;101110.72;5040711;28;20480;-63
2023/01/20 03:53:58;;;;;;;44.83;24.17;;;;;;;2.82;73.05;101115.97;5052230;28;20051;-64
2023/01/20 03:56:42;;;;;;;46.20;25.27;;;;;;;2.86;73.57;101106.31;5053001;28;20545;-63
2023/01/20 03:59:13;;;;;;;42.55;24.85;;;;;;;2.80;72.92;101106.28;5051229;28;20088;-63
2023/01/20 04:01:42;;;;;;;46.25;26.27;;;;;;;2.82;73.41;101112.41;5049256;28;20028;-64
2023/01/20 04:04:13;;;;;;;47.33;27.23;;;;;;;2.84;73.09;101115.81;5053420;28;20033;-64
2023/01/20 04:06:42;;;;;;;48.70;27.92;;;;;;;2.80;73.56;101119.97;5048457;28;20029;-64
2023/01/20 04:09:12;;;;;;;46.13;26.88;;;;;;;2.81;73.81;101113.44;5046815;28;20025;-64
2023/01/20 04:11:37;;;;;;;51.42;28.55;;;;;;;2.82;73.61;101121.47;5048406;28;20075;-64
2023/01/20 04:14:03;;;;;;;48.35;28.15;;;;;;;2.86;72.97;101121.94;5050991;28;20412;-64
2023/01/20 04:16:28;;;;;;;51.47;29.23;;;;;;;2.86;73.40;101114.53;5051917;28;20025;-64
2023/01/20 04:18:53;;;;;;;51.50;28.67;;;;;;;2.85;72.91;101112.84;5051000;28;20029;-64
2023/01/20 04:21:58;;;;;;;44.97;27.42;;;;;;;2.87;73.23;101124.50;5051108;28;20029;-64
2023/01/20 04:24:38;;;;;;;47.33;27.67;;;;;;;2.78;72.96;101116.56;5033928;28;23785;-64
2023/01/20 04:27:03;;;;;;;44.40;25.92;;;;;;;2.79;72.79;101118.25;5040022;28;20090;-64
2023/01/20 04:29:29;;;;;;;46.95;27.83;;;;;;;2.76;73.05;101125.00;5051216;28;20119;-64
2023/01/20 04:31:59;;;;;;;48.45;27.90;;;;;;;2.77;73.24;101110.25;5050932;28;20484;-64
2023/01/20 04:34:24;;;;;;;47.08;26.05;;;;;;;2.74;72.61;101118.00;5050108;28;20358;-64
2023/01/20 04:36:49;;;;;;;45.85;26.35;;;;;;;2.73;72.67;101121.81;5053114;28;20036;-63
2023/01/20 04:39:15;;;;;;;46.20;26.75;;;;;;;2.75;73.19;101120.56;5053207;28;20483;-63
2023/01/20 04:41:40;;;;;;;47.35;27.23;;;;;;;2.75;73.40;101119.69;5042752;28;20041;-63
2023/01/20 04:44:06;;;;;;;46.85;27.02;;;;;;;2.74;72.65;101123.50;5052695;28;20052;-64
2023/01/20 04:46:31;;;;;;;48.05;27.70;;;;;;;2.77;72.47;101120.38;5053221;28;20040;-64
2023/01/20 04:48:56;;;;;;;50.13;27.30;;;;;;;2.75;72.46;101130.66;5051654;28;20060;-63
2023/01/20 04:51:22;;;;;;;44.08;26.10;;;;;;;2.75;72.87;101130.66;5048697;28;20035;-64
2023/01/20 04:53:47;;;;;;;45.80;27.33;;;;;;;2.76;73.21;101132.38;5051079;28;20120;-64
2023/01/20 04:56:14;;;;;;;45.53;27.98;;;;;;;2.77;73.12;101134.06;5049314;28;20116;-64
2023/01/20 04:58:40;;;;;;;48.75;27.83;;;;;;;2.73;72.21;101138.25;5031682;28;20037;-64
2023/01/20 05:01:06;;;;;;;48.10;27.33;;;;;;;2.72;72.63;101139.31;5038914;28;20024;-64
2023/01/20 05:03:32;;;;;;;45.67;27.80;;;;;;;2.73;72.89;101130.88;5052644;28;20086;-64
2023/01/20 05:05:57;;;;;;;43.05;25.48;;;;;;;2.73;72.94;101132.78;5051489;28;20033;-64
2023/01/20 05:08:22;;;;;;;48.20;27.27;;;;;;;2.71;73.05;101143.91;5048364;28;20101;-64
2023/01/20 05:10:48;;;;;;;49.80;27.05;;;;;;;2.72;72.84;101142.88;5044374;28;20350;-64
2023/01/20 05:13:13;;;;;;;46.75;26.90;;;;;;;2.71;72.51;101141.16;5044373;28;20018;-64
2023/01/20 05:15:39;;;;;;;47.88;27.25;;;;;;;2.71;72.88;101141.16;5048245;28;20044;-64
2023/01/20 05:18:05;;;;;;;50.22;28.50;;;;;;;2.73;73.13;101141.00;5049980;28;20056;-64
2023/01/20 05:20:30;;;;;;;45.70;27.02;;;;;;;2.73;72.81;101143.72;5052329;28;20056;-64
2023/01/20 05:22:57;;;;;;;49.28;27.63;;;;;;;2.75;72.94;101147.13;5051585;28;20029;-64
2023/01/20 05:25:22;;;;;;;49.85;28.40;;;;;;;2.73;72.94;101141.84;5041329;28;20033;-63
2023/01/20 05:27:47;;;;;;;46.63;26.13;;;;;;;2.74;72.13;101151.75;5044055;28;20469;-64
2023/01/20 05:30:13;;;;;;;50.90;27.75;;;;;;;2.74;73.05;101156.38;5048055;28;20037;-64
2023/01/20 05:32:38;;;;;;;47.22;26.58;;;;;;;2.73;72.87;101151.94;5032065;28;20032;-64
2023/01/20 05:35:04;;;;;;;48.45;27.85;;;;;;;2.70;72.29;101148.53;5046198;28;20064;-64
2023/01/20 05:37:29;;;;;;;51.72;27.90;;;;;;;2.71;73.00;101149.38;5049786;28;20056;-64
2023/01/20 05:39:54;;;;;;;55.97;27.35;;;;;;;2.75;72.49;101152.59;5049751;28;20554;-64
2023/01/20 05:42:20;;;;;;;50.13;27.13;;;;;;;2.74;72.77;101150.91;5050880;28;20059;-64
2023/01/20 05:44:45;;;;;;;45.22;25.88;;;;;;;2.75;72.12;101153.47;5050909;28;20029;-64
2023/01/20 05:47:10;;;;;;;49.38;26.73;;;;;;;2.75;72.43;101147.13;5049632;28;20070;-64
2023/01/20 05:49:35;;;;;;;54.65;26.10;;;;;;;2.74;72.04;101145.41;5040644;28;20036;-64
2023/01/20 05:52:01;;;;;;;48.17;26.65;;;;;;;2.73;71.96;101152.81;5050612;28;20037;-64
2023/01/20 05:54:26;;;;;;;51.60;26.67;;;;;;;2.65;72.40;101156.50;5050834;28;20066;-64
2023/01/20 05:56:51;;;;;;;45.28;25.95;;;;;;;2.63;72.66;101158.59;5050099;28;20468;-64
2023/01/20 05:59:17;;;;;;;48.58;25.00;;;;;;;2.66;72.26;101160.09;5050560;28;20081;-64
2023/01/20 06:01:42;;;;;;;45.55;24.92;;;;;;;2.65;72.50;101153.78;5043703;28;20502;-63
2023/01/20 06:04:08;;;;;;;44.05;25.13;;;;;;;2.62;72.88;101162.38;5050702;28;20028;-64
2023/01/20 06:06:33;;;;;;;43.92;24.75;;;;;;;2.65;72.41;101163.88;5048199;28;20044;-64
2023/01/20 06:08:58;;;;;;;45.22;24.30;;;;;;;2.62;72.23;101167.84;5047037;28;20032;-63
2023/01/20 06:11:24;;;;;;;45.13;25.85;;;;;;;2.64;72.79;101173.16;5030337;28;20040;-64
2023/01/20 06:13:49;;;;;;;46.08;25.63;;;;;;;2.64;72.82;101168.53;5031146;28;20440;-64
2023/01/20 06:16:18;;;;;;;44.70;24.63;;;;;;;2.68;72.50;101169.84;5038184;28;20060;-64
2023/01/20 06:18:43;;;;;;;43.30;24.30;;;;;;;2.67;72.95;101173.63;5032899;28;20029;-64
2023/01/20 06:21:08;;;;;;;45.13;25.08;;;;;;;2.66;72.73;101171.06;5037440;28;20388;-64
2023/01/20 06:23:34;;;;;;;43.03;23.83;;;;;;;2.68;72.84;101182.69;5047727;28;20095;-64
2023/01/20 06:26:01;;;;;;;45.90;24.42;;;;;;;2.65;72.60;101180.34;5039696;28;20099;-63
2023/01/20 06:28:27;;;;;;;53.35;26.38;;;;;;;2.66;73.02;101182.88;5046649;28;20044;-63
2023/01/20 06:31:00;;;;;;;45.13;25.95;;;;;;;2.67;72.94;101183.72;5047433;28;20548;-63
2023/01/20 06:33:25;;;;;;;46.42;25.67;;;;;;;2.65;72.09;101178.44;5047448;28;20036;-63
2023/01/20 06:35:54;;;;;;;51.08;25.20;;;;;;;2.69;72.83;101187.13;5040597;28;20029;-64
2023/01/20 06:38:24;;;;;;;51.20;26.17;;;;;;;2.65;72.23;101181.19;5045571;28;20037;-64
2023/01/20 06:40:54;;;;;;;45.22;25.27;;;;;;;2.66;72.47;101182.88;5049395;28;20029;-64
2023/01/20 06:43:20;;;;;;;47.15;25.83;;;;;;;2.69;72.13;101182.47;5049178;28;20136;-64
2023/01/20 06:45:45;;;;;;;48.03;26.55;;;;;;;2.68;72.22;101172.56;5048792;28;20033;-64
2023/01/20 06:48:10;;;;;;;45.40;25.00;;;;;;;2.66;72.32;101169.16;5047618;28;20159;-64
2023/01/20 06:50:35;;;;;;;46.15;24.88;;;;;;;2.65;72.90;101164.72;5047086;28;20024;-64
2023/01/20 06:53:01;;;;;;;46.75;25.92;;;;;;;2.64;72.18;101176.75;5041458;28;20121;-64
2023/01/20 06:55:26;;;;;;;46.22;24.48;;;;;;;2.56;73.01;101168.63;5046992;28;20445;-64
2023/01/20 06:57:53;;;;;;;44.20;25.25;;;;;;;2.53;73.54;101174.50;5047502;28;20029;-64
2023/01/20 07:00:18;;;;;;;49.35;25.05;;;;;;;2.57;72.72;101172.22;5046612;28;20033;-64
2023/01/20 07:02:44;;;;;;;50.13;25.70;;;;;;;2.56;73.46;101170.53;5047208;28;20040;-64
2023/01/20 07:05:09;;;;;;;46.92;25.02;;;;;;;2.58;72.92;101172.03;5043121;28;20044;-64
2023/01/20 07:07:34;;;;;;;45.88;24.33;;;;;;;2.54;73.57;101167.97;5032854;28;20037;-63
2023/01/20 07:10:01;;;;;;;43.83;25.15;;;;;;;2.53;73.55;101171.75;5029788;28;20041;-64
2023/01/20 07:12:27;;;;;;;39.72;23.38;;;;;;;2.55;73.34;101169.66;5030766;28;20031;-64
2023/01/20 07:14:52;;;;;;;43.65;24.75;;;;;;;2.56;73.77;101170.53;5043728;28;20040;-63
2023/01/20 07:17:17;;;;;;;42.08;24.42;;;;;;;2.48;73.36;101176.97;5033354;28;20027;-64
2023/01/20 07:19:42;;;;;;;46.08;25.45;;;;;;;2.42;74.03;101173.09;5042595;28;20629;-64
2023/01/20 07:22:08;;;;;;;39.60;23.10;;;;;;;2.46;73.99;101179.03;5033363;28;20209;-64
2023/01/20 07:24:33;;;;;;;42.83;24.58;;;;;;;2.47;74.17;101186.22;5051466;28;20060;-64
2023/01/20 07:26:58;;;;;;;42.50;24.40;;;;;;;2.47;73.89;101178.00;5051781;28;20059;-67
2023/01/20 07:29:25;;;;;;;42.53;23.58;;;;;;;2.52;73.95;101189.25;5050611;28;20027;-66
2023/01/20 07:31:50;;;;;;;43.47;23.75;;;;;;;2.49;73.73;101186.03;5047227;28;20487;-66
2023/01/20 07:34:16;;;;;;;39.28;23.52;;;;;;;2.54;74.26;101189.03;5049614;28;20036;-65
2023/01/20 07:36:41;;;;;;;40.20;23.52;;;;;;;2.53;74.16;101193.69;5050871;28;20025;-66
2023/01/20 07:39:09;;;;;;;39.97;23.48;;;;;;;2.51;74.28;101209.44;5040972;28;20492;-66
2023/01/20 07:41:34;;;;;;;41.35;24.35;;;;;;;2.51;74.09;101205.88;5052242;28;20170;-67
2023/01/20 07:43:59;;;;;;;40.83;22.90;;;;;;;2.55;73.87;101210.75;5051496;28;20037;-67
2023/01/20 07:46:25;;;;;;;36.92;22.92;;;;;;;2.59;74.35;101205.75;5033143;28;20037;-66
2023/01/20 07:48:50;;;;;;;42.53;23.35;;;;;;;2.56;73.94;101214.38;5046515;28;20035;-66
2023/01/20 07:51:16;;;;;;;40.08;23.25;;;;;;;2.53;74.02;101218.34;5050772;28;20398;-66
2023/01/20 07:53:45;;;;;;;38.30;23.23;;;;;;;2.53;74.58;101214.75;5051847;28;20461;-66
2023/01/20 07:56:14;;;;;;;41.65;23.42;;;;;;;2.55;74.24;101220.88;5051008;28;20036;-66
2023/01/20 07:58:40;;;;;;;39.17;23.77;;;;;;;2.56;74.45;101220.72;5051191;28;20451;-65
2023/01/20 08:01:07;;;;;;;40.15;22.58;;;;;;;2.51;74.27;101223.16;5051836;28;20053;-64
2023/01/20 08:03:33;;;;;;;38.17;23.33;;;;;;;2.49;74.05;101219.78;5042251;28;20037;-68
2023/01/20 08:06:02;;;;;;;37.20;22.17;;;;;;;2.47;74.48;101225.41;5050803;28;20110;-63
2023/01/20 08:08:28;;;;;;;36.15;22.33;;;;;;;2.52;74.56;101221.28;5049133;28;20021;-64
2023/01/20 08:10:53;;;;;;;41.25;23.30;;;;;;;2.55;74.67;101224.47;5048847;28;20033;-65
2023/01/20 08:13:19;;;;;;;37.33;21.98;;;;;;;2.56;74.75;101231.66;5051457;28;20029;-64
2023/01/20 08:15:44;;;;;;;35.70;21.75;;;;;;;2.57;74.27;101227.03;5050050;28;20427;-67
2023/01/20 08:18:09;;;;;;;39.17;22.80;;;;;;;2.54;74.86;101228.25;5038725;28;20043;-64
2023/01/20 08:20:39;;;;;;;36.22;22.48;;;;;;;2.54;74.87;101232.88;5047341;28;20029;-68
2023/01/20 08:23:05;;;;;;;37.33;22.10;;;;;;;2.56;75.12;101234.41;5047545;28;20039;-65
2023/01/20 08:25:30;;;;;;;37.67;23.33;;;;;;;2.55;74.52;101229.94;5044990;28;20136;-69
2023/01/20 08:27:55;;;;;;;37.05;21.48;;;;;;;2.58;74.26;101236.94;5047711;28;20503;-64
2023/01/20 08:30:21;;;;;;;38.33;24.70;;;;;;;2.61;75.13;101239.31;5051371;28;20033;-64
2023/01/20 08:32:46;;;;;;;34.20;21.95;;;;;;;2.61;74.41;101234.66;5043445;28;20052;-63
2023/01/20 08:35:11;;;;;;;33.85;21.88;;;;;;;2.60;74.26;101234.88;5034725;28;20028;-64
2023/01/20 08:37:36;;;;;;;30.58;20.60;;;;;;;2.60;74.43;101238.47;5039056;28;20056;-64
2023/01/20 08:40:05;;;;;;;31.38;19.90;;;;;;;2.55;74.65;101240.06;5044177;28;20627;-63
2023/01/20 08:42:30;;;;;;;32.60;21.98;;;;;;;2.55;74.67;101240.06;5044519;28;20091;-63
2023/01/20 08:44:55;;;;;;;33.67;23.52;;;;;;;2.54;74.84;101235.63;5047981;28;20473;-62
2023/01/20 08:47:22;;;;;;;32.22;20.98;;;;;;;2.50;74.55;101243.38;5039212;28;20040;-63
2023/01/20 08:49:48;;;;;;;29.85;20.08;;;;;;;2.49;75.38;101240.84;5038902;28;20068;-65
2023/01/20 08:52:13;;;;;;;29.83;19.33;;;;;;;2.50;74.60;101248.00;5040869;28;20087;-65
2023/01/20 08:54:38;;;;;;;30.10;19.17;;;;;;;2.51;74.43;101245.06;5048507;28;20128;-64
2023/01/20 08:57:03;;;;;;;32.35;20.40;;;;;;;2.52;74.98;101243.22;5047972;28;20447;-65
2023/01/20 08:59:29;;;;;;;29.83;18.80;;;;;;;2.50;75.09;101248.84;5051339;28;20029;-63
2023/01/20 09:01:54;;;;;;;29.25;20.33;;;;;;;2.50;74.94;101253.50;5045266;28;20063;-63
2023/01/20 09:04:19;;;;;;;33.42;20.80;;;;;;;2.51;74.41;101261.50;5049685;28;20041;-63
2023/01/20 09:06:49;;;;;;;36.40;22.33;;;;;;;2.49;75.15;101247.16;5043447;28;20029;-63
2023/01/20 09:09:16;;;;;;;48.63;29.55;;;;;;;2.51;75.34;101250.53;5045157;28;20037;-66
2023/01/20 09:11:49;;;;;;;32.92;21.45;;;;;;;2.49;75.04;101260.88;5049325;28;20056;-64
2023/01/20 09:14:15;;;;;;;31.58;20.55;;;;;;;2.55;75.02;101256.50;5046929;28;20513;-64
2023/01/20 09:16:40;;;;;;;28.35;19.33;;;;;;;2.57;75.13;101257.19;5046891;28;20032;-64
2023/01/20 09:19:06;;;;;;;31.75;21.17;;;;;;;2.54;75.07;101254.81;5049357;28;20502;-63
2023/01/20 09:21:31;;;;;;;29.52;19.27;;;;;;;2.54;74.71;101254.81;5046376;28;20026;-63
2023/01/20 09:23:56;;;;;;;28.17;20.15;;;;;;;2.53;75.11;101258.59;5048379;28;20044;-63
2023/01/20 09:26:22;;;;;;;31.73;20.25;;;;;;;2.53;74.73;101245.75;5045184;28;20031;-65
2023/01/20 09:28:47;;;;;;;31.10;20.45;;;;;;;2.54;74.83;101252.06;5034272;28;20107;-64
2023/01/20 09:31:12;;;;;;;29.92;20.05;;;;;;;2.54;74.77;101252.91;5048929;28;20051;-64
2023/01/20 09:33:38;;;;;;;31.80;21.65;;;;;;;2.57;74.66;101265.41;5048024;28;20033;-64
2023/01/20 09:36:06;;;;;;;31.17;21.45;;;;;;;2.56;74.87;101260.97;5043508;28;20103;-64
2023/01/20 09:44:38;;;;;;;38.00;23.00;;;;;;;2.58;74.79;101272.56;5040937;28;20153;-64
2023/01/20 09:47:19;;;;;;;28.98;20.17;;;;;;;2.59;75.59;101275.09;5041567;28;20433;-65
2023/01/20 09:53:00;;;;;;;36.83;23.92;;;;;;;2.56;74.71;101275.50;5043906;28;20056;-64
2023/01/20 09:55:40;;;;;;;29.98;21.45;;;;;;;2.58;75.07;101278.91;5048696;28;20107;-63
2023/01/20 09:58:43;;;;;;;29.27;20.77;;;;;;;2.61;75.19;101275.78;5044267;28;20025;-64
2023/01/20 10:01:29;;;;;;;23.90;16.98;;;;;;;2.57;74.75;101274.47;5042900;28;20086;-62
2023/01/20 10:04:19;;;;;;;23.27;16.67;;;;;;;2.60;75.08;101275.97;5031133;28;20613;-61
2023/01/20 10:06:48;;;;;;;28.42;18.33;;;;;;;2.50;75.45;101267.19;5043669;28;20093;-62
2023/01/20 10:09:30;;;;;;;23.55;17.00;;;;;;;2.46;75.30;101258.50;5043908;28;20028;-62
2023/01/20 10:12:11;;;;;;;27.38;18.23;;;;;;;2.44;75.95;101260.59;5046751;28;20065;-61
2023/01/20 10:14:43;;;;;;;28.90;18.90;;;;;;;2.44;75.41;101261.44;5034720;28;20072;-61
2023/01/20 10:17:13;;;;;;;21.02;16.08;;;;;;;2.43;75.51;101270.69;5043860;28;20409;-61
2023/01/20 10:19:49;;;;;;;21.60;15.15;;;;;;;2.43;75.19;101267.94;5035074;28;20037;-60
2023/01/20 10:22:21;;;;;;;18.15;14.57;;;;;;;2.42;75.62;101270.88;5039966;28;20143;-61
2023/01/20 10:24:57;;;;;;;19.05;13.27;;;;;;;2.48;75.87;101267.41;5041725;28;20041;-61
2023/01/20 10:27:25;;;;;;;19.88;14.52;;;;;;;2.48;75.45;101264.66;5041156;28;20751;-61
2023/01/20 10:29:55;;;;;;;17.92;13.15;;;;;;;2.45;75.57;101262.28;5041508;28;20025;-61
2023/01/20 10:33:02;;;;;;;14.68;11.80;;;;;;;2.55;75.45;101267.47;5044591;28;20070;-62
2023/01/20 10:35:31;;;;;;;15.18;11.52;;;;;;;2.49;75.35;101258.13;5016777;28;20051;-64
2023/01/20 10:37:57;;;;;;;17.42;12.25;;;;;;;2.49;75.12;101260.03;5040826;28;20532;-60
2023/01/20 10:40:25;;;;;;;15.10;11.52;;;;;;;2.46;75.98;101253.88;5038292;28;20037;-63
2023/01/20 10:42:57;;;;;;;15.32;11.75;;;;;;;2.51;75.47;101261.50;5043536;28;20032;-65
2023/01/20 10:46:02;;;;;;;13.95;11.13;;;;;;;2.57;75.53;101249.81;5046090;28;20552;-66
2023/01/20 10:48:48;;;;;;;15.07;12.25;;;;;;;2.55;75.83;101257.34;5006807;28;20029;-63
2023/01/20 10:51:17;;;;;;;15.35;11.90;;;;;;;2.56;75.48;101260.97;5045773;28;20111;-67
2023/01/20 10:53:46;;;;;;;17.05;12.90;;;;;;;2.55;75.00;101268.31;5040932;28;20388;-65
2023/01/20 10:56:44;;;;;;;16.73;13.25;;;;;;;2.59;75.77;101264.16;5050107;28;20163;-64
2023/01/20 10:59:21;;;;;;;16.88;13.10;;;;;;;2.57;75.21;101263.50;5048115;28;20044;-64
2023/01/20 11:01:51;;;;;;;15.52;12.27;;;;;;;2.61;75.58;101264.81;5049974;28;20384;-66
2023/01/20 11:04:19;;;;;;;14.93;11.85;;;;;;;2.61;75.74;101262.06;5042433;28;20476;-66
2023/01/20 11:06:49;;;;;;;16.08;11.63;;;;;;;2.64;75.25;101256.22;5049125;28;20044;-65
2023/01/20 11:09:27;;;;;;;15.23;11.57;;;;;;;2.66;75.27;101265.09;5050102;28;20028;-67
2023/01/20 11:11:53;;;;;;;14.27;11.52;;;;;;;2.63;75.72;101265.50;5048179;28;20107;-65
2023/01/20 11:14:19;;;;;;;14.70;11.82;;;;;;;2.64;74.99;101256.22;5051144;28;20119;-65
2023/01/20 11:16:49;;;;;;;13.38;11.23;;;;;;;2.63;75.91;101265.50;5049114;28;20079;-65
2023/01/20 11:19:14;;;;;;;14.02;11.43;;;;;;;2.68;75.45;101263.03;5048514;28;20028;-64
2023/01/20 11:21:40;;;;;;;14.25;11.82;;;;;;;2.70;75.41;101269.13;5043778;28;20052;-65
2023/01/20 11:24:43;;;;;;;15.77;11.85;;;;;;;2.73;74.81;101270.66;5049967;28;20126;-66
2023/01/20 11:27:21;;;;;;;15.65;11.55;;;;;;;2.68;75.49;101267.66;5053193;28;20040;-66
2023/01/20 11:30:19;;;;;;;14.93;11.95;;;;;;;2.72;75.65;101271.72;5050558;28;20071;-67
2023/01/20 11:32:44;;;;;;;16.30;11.98;;;;;;;2.67;75.07;101268.66;5046381;28;20507;-65
2023/01/20 11:35:22;;;;;;;15.73;12.25;;;;;;;2.67;75.49;101275.03;5041770;28;20027;-64